Time;durP1;ratioP1;P1;durP2;ratioP2;P2;SDS_P1;SDS_P2;PMS_P1;PMS_P2;Temp;Humidity;BMP_temperature;BMP_pressure;BME280_temperature;BME280_humidity;BME280_pressure;Samples;Min_cycle;Max_cycle;Signal;HPM_P1;HPM_P2
2022/05/30 00:01:31;;;;;;;1.60;1.60;;;;;;;8.14;100.00;100004.16;5072231;28;20170;-73
2022/05/30 00:03:56;;;;;;;0.50;0.23;;;;;;;8.13;100.00;99996.28;5071657;28;20175;-74
2022/05/30 00:06:22;;;;;;;0.10;0.10;;;;;;;8.12;100.00;99998.22;5072129;28;20526;-72
2022/05/30 00:08:48;;;;;;;0.00;0.00;;;;;;;8.14;100.00;99997.91;5071945;28;20190;-74
2022/05/30 00:11:15;;;;;;;0.00;0.00;;;;;;;8.17;100.00;100000.00;5071793;28;20182;-76
2022/05/30 00:13:41;;;;;;;0.00;0.00;;;;;;;8.22;100.00;100005.31;5071839;28;20183;-74
2022/05/30 00:16:12;;;;;;;0.50;0.50;;;;;;;8.22;100.00;100003.41;5071953;28;20171;-73
2022/05/30 00:18:38;;;;;;;1.07;1.07;;;;;;;8.24;100.00;100006.63;5071834;28;20276;-74
2022/05/30 00:21:05;;;;;;;0.00;0.00;;;;;;;8.25;100.00;100002.00;5071724;28;20174;-76
2022/05/30 00:23:31;;;;;;;0.20;0.20;;;;;;;8.28;100.00;100004.91;5066141;28;20191;-74
2022/05/30 00:25:56;;;;;;;1.03;0.93;;;;;;;8.28;100.00;100004.13;5068216;28;20170;-75
2022/05/30 00:28:22;;;;;;;0.37;0.37;;;;;;;8.30;100.00;100001.88;5071453;28;20170;-73
2022/05/30 00:30:48;;;;;;;0.30;0.30;;;;;;;8.29;100.00;100006.53;5071534;28;20787;-73
2022/05/30 00:33:14;;;;;;;0.00;0.00;;;;;;;8.29;100.00;100000.28;5071319;28;20190;-72
2022/05/30 00:35:41;;;;;;;0.13;0.13;;;;;;;8.29;100.00;100003.00;5071603;28;20177;-73
2022/05/30 00:38:07;;;;;;;0.00;0.00;;;;;;;8.31;100.00;100004.31;5071128;28;20175;-73
2022/05/30 00:40:33;;;;;;;0.37;0.37;;;;;;;8.31;100.00;100003.50;5071088;28;20182;-73
2022/05/30 00:43:19;;;;;;;0.00;0.00;;;;;;;8.32;100.00;100005.09;5071265;28;20197;-73
2022/05/30 00:45:45;;;;;;;0.27;0.27;;;;;;;8.31;100.00;100007.03;5071277;28;20170;-74
2022/05/30 00:48:10;;;;;;;0.57;0.57;;;;;;;8.30;100.00;100001.88;5071168;28;20232;-73
2022/05/30 00:50:37;;;;;;;0.53;0.53;;;;;;;8.30;100.00;100005.41;5071112;28;20575;-74
2022/05/30 00:53:03;;;;;;;0.00;0.00;;;;;;;8.28;100.00;100007.66;5071019;28;20166;-72
2022/05/30 00:55:28;;;;;;;0.00;0.00;;;;;;;8.30;100.00;100001.88;5068998;28;20665;-75
2022/05/30 00:57:55;;;;;;;0.47;0.47;;;;;;;8.32;100.00;99996.94;5065122;28;20190;-74
2022/05/30 01:00:25;;;;;;;0.00;0.00;;;;;;;8.33;100.00;99999.34;5070927;28;20174;-75
2022/05/30 01:08:23;;;;;;;0.17;0.17;;;;;;;8.33;100.00;99999.34;5071200;28;20169;-73
2022/05/30 01:10:49;;;;;;;0.43;0.43;;;;;;;8.28;100.00;99995.94;5069899;28;20568;-73
2022/05/30 01:13:14;;;;;;;0.00;0.00;;;;;;;8.31;100.00;99998.06;5071229;28;20198;-74
2022/05/30 01:15:40;;;;;;;0.00;0.00;;;;;;;8.30;100.00;99999.16;5070282;28;20175;-73
2022/05/30 01:18:20;;;;;;;0.00;0.00;;;;;;;8.29;100.00;99989.41;5071274;28;20274;-73
2022/05/30 01:20:48;;;;;;;0.00;0.00;;;;;;;8.31;100.00;99992.59;5071008;28;20163;-73
2022/05/30 01:23:23;;;;;;;0.00;0.00;;;;;;;8.34;100.00;99992.81;5071192;28;20181;-73
2022/05/30 01:26:09;;;;;;;0.00;0.00;;;;;;;8.35;100.00;99986.28;5070426;28;20173;-73
2022/05/30 01:28:40;;;;;;;0.77;0.10;;;;;;;8.33;100.00;99993.91;5070880;28;20282;-74
2022/05/30 01:31:06;;;;;;;0.63;0.63;;;;;;;8.32;100.00;99981.41;5071270;28;20269;-76
2022/05/30 01:33:32;;;;;;;2.10;2.00;;;;;;;8.33;100.00;99988.47;5071005;28;20248;-74
2022/05/30 01:35:57;;;;;;;0.20;0.20;;;;;;;8.33;100.00;99985.75;5069530;28;20188;-73
2022/05/30 01:38:24;;;;;;;3.10;0.63;;;;;;;8.29;100.00;99983.94;5070951;28;20542;-73
2022/05/30 01:40:50;;;;;;;0.00;0.00;;;;;;;8.34;100.00;99984.66;5070959;28;20215;-74
2022/05/30 01:43:16;;;;;;;0.00;0.00;;;;;;;8.37;100.00;99987.88;5070777;28;20178;-73
2022/05/30 01:45:41;;;;;;;0.00;0.00;;;;;;;8.33;100.00;99982.22;5070854;28;20170;-73
2022/05/30 01:48:08;;;;;;;0.53;0.53;;;;;;;8.29;100.00;99992.91;5070979;28;20171;-73
2022/05/30 01:50:34;;;;;;;0.00;0.00;;;;;;;8.28;100.00;99974.97;5070612;28;20170;-73
2022/05/30 01:53:00;;;;;;;0.10;0.10;;;;;;;8.28;100.00;99974.97;5070611;28;20565;-73
2022/05/30 01:55:25;;;;;;;1.57;0.27;;;;;;;8.28;100.00;99988.59;5070710;28;20171;-74
2022/05/30 01:57:51;;;;;;;0.77;0.77;;;;;;;8.26;100.00;99990.81;5070697;28;20204;-75
2022/05/30 02:00:17;;;;;;;0.20;0.20;;;;;;;8.26;100.00;99990.00;5070762;28;20173;-73
2022/05/30 02:02:42;;;;;;;0.20;0.20;;;;;;;8.24;100.00;99990.28;5070735;28;20233;-75
2022/05/30 02:05:08;;;;;;;0.23;0.23;;;;;;;8.22;100.00;99987.09;5070409;28;20189;-75
2022/05/30 02:07:33;;;;;;;0.20;0.20;;;;;;;8.20;100.00;99988.50;5070487;28;20177;-76
2022/05/30 02:09:59;;;;;;;0.00;0.00;;;;;;;8.19;100.00;99987.69;5071022;28;20249;-73
2022/05/30 02:12:24;;;;;;;0.03;0.03;;;;;;;8.15;100.00;99978.53;5070810;28;20170;-73
2022/05/30 02:14:50;;;;;;;0.10;0.10;;;;;;;8.17;100.00;99983.69;5070480;28;20194;-75
2022/05/30 02:17:15;;;;;;;0.43;0.43;;;;;;;8.18;100.00;99983.38;5070793;28;20224;-74
2022/05/30 02:19:44;;;;;;;0.00;0.00;;;;;;;8.17;100.00;99983.69;5070481;28;20657;-73
2022/05/30 02:22:13;;;;;;;0.00;0.00;;;;;;;8.16;100.00;99982.88;5070649;28;20217;-74
2022/05/30 02:24:38;;;;;;;0.00;0.00;;;;;;;8.14;100.00;99985.09;5070394;28;20177;-73
2022/05/30 02:27:09;;;;;;;0.00;0.00;;;;;;;8.16;100.00;99982.06;5070754;28;20183;-74
2022/05/30 02:29:34;;;;;;;0.00;0.00;;;;;;;8.17;100.00;99987.22;5073928;28;20179;-73
2022/05/30 02:32:00;;;;;;;0.00;0.00;;;;;;;8.15;100.00;99985.91;5074030;28;20260;-75
2022/05/30 02:37:10;;;;;;;0.00;0.00;;;;;;;8.16;100.00;99982.06;5073970;28;20536;-75
2022/05/30 02:39:35;;;;;;;0.00;0.00;;;;;;;8.16;100.00;99985.59;5074066;28;20171;-75
2022/05/30 02:42:01;;;;;;;0.00;0.00;;;;;;;8.18;100.00;99982.56;5073681;28;20179;-77
2022/05/30 02:44:27;;;;;;;0.23;0.23;;;;;;;8.21;100.00;99976.50;5073760;28;20190;-74
2022/05/30 02:46:57;;;;;;;0.40;0.40;;;;;;;8.19;100.00;99971.38;5074007;28;20202;-73
2022/05/30 02:49:23;;;;;;;0.10;0.10;;;;;;;8.18;100.00;99972.50;5073655;28;20175;-73
2022/05/30 02:51:48;;;;;;;0.00;0.00;;;;;;;8.19;100.00;99974.09;5072599;28;20536;-76
2022/05/30 02:54:14;;;;;;;0.00;0.00;;;;;;;8.21;100.00;99985.47;5073446;28;20223;-74
2022/05/30 02:56:40;;;;;;;0.20;0.20;;;;;;;8.23;100.00;99982.44;5073967;28;20622;-75
2022/05/30 02:59:07;;;;;;;0.10;0.10;;;;;;;8.21;100.00;99990.91;5073415;28;20694;-75
2022/05/30 03:01:33;;;;;;;0.00;0.00;;;;;;;8.22;100.00;99983.56;5073740;28;20178;-73
2022/05/30 03:04:01;;;;;;;0.00;0.00;;;;;;;8.24;100.00;99995.75;5073459;28;20170;-74
2022/05/30 03:06:27;;;;;;;0.00;0.00;;;;;;;8.24;100.00;99993.00;5073191;28;20223;-75
2022/05/30 03:08:53;;;;;;;0.27;0.27;;;;;;;8.24;100.00;99989.50;5073498;28;20183;-76
2022/05/30 03:11:18;;;;;;;0.00;0.00;;;;;;;8.21;100.00;99990.91;5073350;28;20312;-73
2022/05/30 03:13:44;;;;;;;0.00;0.00;;;;;;;8.22;100.00;100000.69;5073223;28;20194;-73
2022/05/30 03:16:10;;;;;;;0.00;0.00;;;;;;;8.23;100.00;99993.31;5073582;28;20279;-73
2022/05/30 03:18:35;;;;;;;0.00;0.00;;;;;;;8.29;100.00;99995.63;5073118;28;20174;-74
2022/05/30 03:21:01;;;;;;;0.20;0.20;;;;;;;8.30;100.00;100005.41;5073132;28;20182;-74
2022/05/30 03:23:26;;;;;;;0.00;0.00;;;;;;;8.25;100.00;100000.09;5073149;28;20175;-74
2022/05/30 03:25:52;;;;;;;0.00;0.00;;;;;;;8.25;100.00;99996.56;5072880;28;20190;-74
2022/05/30 03:28:17;;;;;;;0.10;0.10;;;;;;;8.24;100.00;100003.09;5072922;28;20308;-76
2022/05/30 03:30:44;;;;;;;0.00;0.00;;;;;;;8.25;100.00;100000.09;5072840;28;20253;-74
2022/05/30 03:33:09;;;;;;;0.00;0.00;;;;;;;8.26;100.00;99998.97;5072737;28;20647;-74
2022/05/30 03:35:36;;;;;;;0.10;0.10;;;;;;;8.25;100.00;99999.28;5073267;28;20175;-74
2022/05/30 03:38:03;;;;;;;0.00;0.00;;;;;;;8.22;100.00;99997.16;5072802;28;20178;-75
2022/05/30 03:40:28;;;;;;;0.00;0.00;;;;;;;8.24;100.00;100000.38;5071916;28;20207;-75
2022/05/30 03:42:53;;;;;;;1.73;1.70;;;;;;;8.27;100.00;100007.94;5072741;28;20206;-73
2022/05/30 03:45:19;;;;;;;0.10;0.10;;;;;;;8.25;100.00;100007.47;5072436;28;20194;-74
2022/05/30 03:47:46;;;;;;;0.07;0.07;;;;;;;8.22;100.00;100002.59;5072535;28;20560;-74
2022/05/30 03:50:18;;;;;;;0.10;0.10;;;;;;;8.21;100.00;100009.97;5069944;28;20174;-73
2022/05/30 03:52:43;;;;;;;0.00;0.00;;;;;;;8.19;100.00;100008.66;5070834;28;20170;-74
2022/05/30 03:55:13;;;;;;;0.17;0.17;;;;;;;8.14;100.00;100006.88;5072401;28;20214;-73
2022/05/30 03:57:42;;;;;;;0.00;0.00;;;;;;;8.16;100.00;100007.38;5072044;28;20744;-74
2022/05/30 04:00:10;;;;;;;0.10;0.10;;;;;;;8.19;100.00;100005.94;5072606;28;20248;-74
2022/05/30 04:02:35;;;;;;;0.00;0.00;;;;;;;8.16;100.00;100001.13;5072403;28;20681;-76
2022/05/30 04:05:01;;;;;;;0.00;0.00;;;;;;;8.20;100.00;99999.38;5072625;28;20174;-73
2022/05/30 04:07:26;;;;;;;1.13;0.20;;;;;;;8.26;100.00;100007.16;5072208;28;20186;-75
2022/05/30 04:09:52;;;;;;;0.30;0.30;;;;;;;8.28;100.00;100007.66;5072152;28;20205;-73
2022/05/30 04:12:21;;;;;;;0.27;0.27;;;;;;;8.21;100.00;100007.25;5072271;28;20222;-71
2022/05/30 04:14:55;;;;;;;0.00;0.00;;;;;;;8.19;100.00;100004.03;5071971;28;20191;-74
2022/05/30 04:17:21;;;;;;;0.10;0.10;;;;;;;8.24;100.00;100003.91;5071954;28;20158;-73
2022/05/30 04:19:46;;;;;;;5.43;0.57;;;;;;;8.23;100.00;100005.00;5071662;28;20205;-73
2022/05/30 04:22:11;;;;;;;0.43;0.40;;;;;;;8.23;100.00;100002.28;5071847;28;20235;-72
2022/05/30 04:24:37;;;;;;;1.30;1.30;;;;;;;8.28;100.00;100013.09;5067377;28;20175;-72
2022/05/30 04:27:02;;;;;;;0.13;0.13;;;;;;;8.28;100.00;100010.38;5071459;28;20188;-73
2022/05/30 04:29:29;;;;;;;0.27;0.27;;;;;;;8.28;100.00;100004.91;5071849;28;20178;-72
2022/05/30 04:31:55;;;;;;;3.37;1.13;;;;;;;8.34;100.00;100016.50;5071757;28;20633;-73
2022/05/30 04:34:20;;;;;;;0.30;0.20;;;;;;;8.40;100.00;100011.78;5071479;28;20226;-73
2022/05/30 04:36:45;;;;;;;0.00;0.00;;;;;;;8.44;100.00;100013.56;5071686;28;20174;-73
2022/05/30 04:39:11;;;;;;;0.00;0.00;;;;;;;8.52;100.00;100023.72;5071758;28;20178;-73
2022/05/30 04:41:36;;;;;;;1.27;1.20;;;;;;;8.54;100.00;100020.72;5071726;28;20183;-72
2022/05/30 04:44:02;;;;;;;0.10;0.10;;;;;;;8.56;100.00;100024.72;5071159;28;20548;-76
2022/05/30 04:46:27;;;;;;;0.00;0.00;;;;;;;8.57;100.00;100026.34;5071261;28;20189;-73
2022/05/30 04:48:53;;;;;;;0.80;0.80;;;;;;;8.59;100.00;100018.66;5071412;28;20175;-75
2022/05/30 04:51:18;;;;;;;0.93;0.93;;;;;;;8.58;100.00;100029.84;5071232;28;20202;-75
2022/05/30 04:53:43;;;;;;;0.33;0.33;;;;;;;8.63;100.00;100038.69;5071482;28;20677;-73
2022/05/30 04:56:09;;;;;;;0.03;0.03;;;;;;;8.69;100.00;100030.44;5071483;28;20660;-73
2022/05/30 04:58:36;;;;;;;0.00;0.00;;;;;;;8.73;100.00;100032.22;5071247;28;20170;-73
2022/05/30 05:01:05;;;;;;;0.20;0.20;;;;;;;8.75;100.00;100042.81;5071392;28;20171;-74
2022/05/30 05:03:32;;;;;;;0.00;0.00;;;;;;;8.82;100.00;100041.25;5071286;28;20241;-74
2022/05/30 05:06:06;;;;;;;0.23;0.23;;;;;;;8.91;100.00;100041.31;5071158;28;20179;-73
2022/05/30 05:08:49;;;;;;;0.77;0.77;;;;;;;8.90;100.00;100045.97;5069451;28;20173;-75
2022/05/30 05:11:22;;;;;;;0.00;0.00;;;;;;;8.86;100.00;100046.91;5071294;28;20182;-71
2022/05/30 05:13:48;;;;;;;0.47;0.47;;;;;;;8.90;100.00;100053.31;5071054;28;20194;-75
2022/05/30 05:16:15;;;;;;;0.00;0.00;;;;;;;8.94;100.00;100051.59;5071168;28;20693;-75
2022/05/30 05:18:40;;;;;;;2.87;1.33;;;;;;;8.95;100.00;100048.56;5071283;28;20261;-75
2022/05/30 05:21:06;;;;;;;0.47;0.00;;;;;;;8.86;100.00;100046.91;5070949;28;20305;-73
2022/05/30 05:23:32;;;;;;;2.57;0.63;;;;;;;8.85;100.00;100048.81;5071016;28;20202;-72
2022/05/30 05:25:58;;;;;;;0.30;0.20;;;;;;;8.92;100.00;100041.00;5070837;28;20287;-73
2022/05/30 05:28:23;;;;;;;0.00;0.00;;;;;;;9.00;99.34;100046.84;5070836;28;20171;-73
2022/05/30 05:30:48;;;;;;;2.10;1.83;;;;;;;9.09;98.03;100050.41;5071197;28;20258;-75
2022/05/30 05:33:17;;;;;;;0.00;0.00;;;;;;;9.14;96.52;100048.38;5070686;28;20269;-74
2022/05/30 05:35:44;;;;;;;0.00;0.00;;;;;;;9.19;95.02;100055.59;5070911;28;20177;-73
2022/05/30 05:38:10;;;;;;;0.50;0.50;;;;;;;9.30;96.09;100059.69;5070030;28;20186;-74
2022/05/30 05:40:40;;;;;;;1.23;0.30;;;;;;;9.27;95.68;100064.97;5069697;28;20182;-73
2022/05/30 05:43:07;;;;;;;0.30;0.30;;;;;;;9.22;95.58;100057.69;5068552;28;20186;-73
2022/05/30 05:45:34;;;;;;;0.00;0.00;;;;;;;9.28;95.68;100061.94;5070000;28;20218;-72
2022/05/30 05:47:59;;;;;;;0.10;0.10;;;;;;;9.25;95.07;100067.97;5070809;28;20673;-72
2022/05/30 05:50:24;;;;;;;0.00;0.00;;;;;;;9.35;95.16;100059.53;5072368;28;20178;-72
2022/05/30 05:52:53;;;;;;;0.00;0.00;;;;;;;9.40;95.32;100064.88;5071732;28;20176;-72
2022/05/30 05:55:19;;;;;;;0.00;0.00;;;;;;;9.35;94.08;100059.53;5070207;28;20635;-72
2022/05/30 05:57:45;;;;;;;0.87;0.87;;;;;;;9.45;94.78;100070.19;5070506;28;20218;-72
2022/05/30 06:00:12;;;;;;;0.20;0.20;;;;;;;9.52;95.17;100062.34;5070332;28;20259;-72
2022/05/30 06:02:40;;;;;;;0.20;0.00;;;;;;;9.60;94.33;100063.53;5071890;28;20182;-73
2022/05/30 06:05:08;;;;;;;0.07;0.07;;;;;;;9.65;95.09;100059.84;5073974;28;20197;-72
2022/05/30 06:07:35;;;;;;;1.83;0.37;;;;;;;9.58;94.19;100064.97;5073894;28;20166;-73
2022/05/30 06:10:00;;;;;;;0.00;0.00;;;;;;;9.56;93.47;100057.09;5074484;28;20174;-72
2022/05/30 06:12:26;;;;;;;0.00;0.00;;;;;;;9.59;93.41;100056.47;5074308;28;20336;-73
2022/05/30 06:14:51;;;;;;;16.13;0.67;;;;;;;9.57;93.44;100066.88;5073765;28;20202;-72
2022/05/30 06:17:16;;;;;;;0.00;0.00;;;;;;;9.60;92.71;100063.53;5074143;28;20178;-72
2022/05/30 06:19:42;;;;;;;0.03;0.03;;;;;;;9.67;92.77;100066.59;5074006;28;20270;-73
2022/05/30 06:22:07;;;;;;;1.27;0.93;;;;;;;9.51;90.16;100070.84;5074450;28;20177;-72
2022/05/30 06:24:32;;;;;;;4.80;0.97;;;;;;;9.41;90.25;100076.59;5073664;28;20171;-73
2022/05/30 06:26:57;;;;;;;0.00;0.00;;;;;;;9.46;91.34;100074.53;5073823;28;20171;-73
2022/05/30 06:29:23;;;;;;;0.10;0.10;;;;;;;9.44;91.75;100074.03;5074033;28;20559;-72
2022/05/30 06:31:48;;;;;;;2.07;1.33;;;;;;;9.58;91.91;100087.59;5073847;28;20177;-72
2022/05/30 06:34:14;;;;;;;0.00;0.00;;;;;;;9.49;90.24;100079.34;5073688;28;20209;-72
2022/05/30 06:36:41;;;;;;;0.00;0.00;;;;;;;9.52;90.19;100086.91;5073548;28;20178;-74
2022/05/30 06:39:06;;;;;;;1.33;0.60;;;;;;;9.58;90.59;100084.06;5073716;28;20178;-73
2022/05/30 06:41:32;;;;;;;0.00;0.00;;;;;;;9.58;90.98;100086.78;5073754;28;20186;-72
2022/05/30 06:44:06;;;;;;;3.60;1.63;;;;;;;9.64;91.37;100089.03;5073438;28;20178;-72
2022/05/30 06:46:34;;;;;;;0.00;0.00;;;;;;;9.66;91.63;100086.00;5073819;28;20162;-73
2022/05/30 06:48:59;;;;;;;0.00;0.00;;;;;;;9.65;92.23;100089.84;5073149;28;20228;-72
2022/05/30 06:51:27;;;;;;;0.00;0.00;;;;;;;9.67;91.03;100079.44;5073543;28;20607;-72
2022/05/30 06:53:53;;;;;;;0.00;0.00;;;;;;;9.69;90.94;100083.47;5073361;28;20202;-73
2022/05/30 06:56:31;;;;;;;0.67;0.60;;;;;;;9.74;90.79;100085.25;5073828;28;20600;-75
2022/05/30 06:58:57;;;;;;;0.00;0.00;;;;;;;9.77;90.57;100090.06;5073396;28;20254;-75
2022/05/30 07:01:27;;;;;;;0.10;0.10;;;;;;;9.94;91.79;100092.06;5073412;28;20793;-75
2022/05/30 07:03:53;;;;;;;9.33;1.63;;;;;;;9.98;91.81;100085.69;5073870;28;20257;-73
2022/05/30 07:06:26;;;;;;;0.03;0.03;;;;;;;9.95;90.20;100096.41;5073788;28;20546;-72
2022/05/30 07:08:52;;;;;;;9.10;0.63;;;;;;;9.93;89.80;100099.44;5073537;28;20528;-72
2022/05/30 07:11:21;;;;;;;1.03;0.93;;;;;;;9.86;88.47;100092.84;5073270;28;20227;-72
2022/05/30 07:13:47;;;;;;;0.10;0.10;;;;;;;9.86;89.21;100103.75;5071616;28;20281;-73
2022/05/30 07:16:13;;;;;;;1.17;1.17;;;;;;;9.85;88.75;100102.97;5073253;28;20293;-72
2022/05/30 07:18:39;;;;;;;0.00;0.00;;;;;;;9.95;88.87;100101.84;5069978;28;20181;-73
2022/05/30 07:21:07;;;;;;;0.00;0.00;;;;;;;10.07;89.06;100105.59;5073068;28;20630;-73
2022/05/30 07:23:35;;;;;;;0.00;0.00;;;;;;;10.21;88.26;100104.69;5073371;28;20170;-72
2022/05/30 07:26:03;;;;;;;0.00;0.00;;;;;;;10.32;87.49;100106.03;5073110;28;20174;-72
2022/05/30 07:28:29;;;;;;;0.00;0.00;;;;;;;10.36;86.22;100101.53;5072315;28;20175;-72
2022/05/30 07:31:17;;;;;;;0.37;0.23;;;;;;;10.44;85.42;100100.75;5072482;28;20569;-72
2022/05/30 07:33:46;;;;;;;0.00;0.00;;;;;;;10.63;85.75;100095.78;5069810;28;20263;-72
2022/05/30 07:36:16;;;;;;;1.50;1.30;;;;;;;10.57;83.84;100094.34;5072088;28;20205;-73
2022/05/30 07:38:42;;;;;;;0.33;0.33;;;;;;;10.50;82.19;100099.47;5072200;28;20174;-73
2022/05/30 07:41:08;;;;;;;0.60;0.60;;;;;;;10.42;82.33;100103.81;5072199;28;20181;-73
2022/05/30 07:43:34;;;;;;;0.67;0.67;;;;;;;10.37;82.26;100097.66;5055401;28;20203;-73
2022/05/30 07:46:05;;;;;;;0.00;0.00;;;;;;;10.43;83.27;100105.41;5052141;28;20186;-74
2022/05/30 07:48:30;;;;;;;0.87;0.47;;;;;;;10.51;82.55;100106.53;5052010;28;20509;-73
2022/05/30 07:50:57;;;;;;;0.00;0.00;;;;;;;10.50;80.12;100106.84;5052133;28;20175;-76
2022/05/30 07:53:23;;;;;;;0.00;0.00;;;;;;;10.61;79.93;100103.50;5052512;28;20189;-73
2022/05/30 07:55:48;;;;;;;0.90;0.40;;;;;;;10.60;78.75;100107.34;5052520;28;20175;-73
2022/05/30 07:58:13;;;;;;;0.10;0.10;;;;;;;10.64;79.05;100102.84;5052168;28;20209;-73
2022/05/30 08:00:38;;;;;;;0.00;0.00;;;;;;;10.88;79.71;100101.59;5052405;28;20183;-72
2022/05/30 08:03:05;;;;;;;0.00;0.00;;;;;;;11.01;78.86;100103.38;5052710;28;20183;-73
2022/05/30 08:05:30;;;;;;;4.13;0.20;;;;;;;10.98;77.81;100101.25;5052447;28;20216;-73
2022/05/30 08:07:56;;;;;;;1.30;0.50;;;;;;;10.83;75.46;100104.47;5052205;28;20546;-72
2022/05/30 08:10:21;;;;;;;0.00;0.00;;;;;;;10.76;75.75;100104.97;5052421;28;20229;-73
2022/05/30 08:12:47;;;;;;;0.00;0.00;;;;;;;10.80;76.64;100113.31;5059586;28;20174;-73
2022/05/30 08:15:14;;;;;;;0.00;0.00;;;;;;;10.67;74.70;100113.13;5071926;28;20210;-74
2022/05/30 08:17:40;;;;;;;0.00;0.00;;;;;;;10.64;74.13;100113.78;5071600;28;20179;-73
2022/05/30 08:20:10;;;;;;;8.57;1.40;;;;;;;10.57;74.79;100126.31;5071861;28;20182;-73
2022/05/30 08:22:37;;;;;;;0.17;0.13;;;;;;;10.45;76.04;100116.00;5071856;28;20174;-72
2022/05/30 08:25:14;;;;;;;0.10;0.10;;;;;;;10.31;76.37;100123.53;5071364;28;20174;-73
2022/05/30 08:27:40;;;;;;;0.10;0.10;;;;;;;10.29;76.96;100120.31;5071777;28;20166;-72
2022/05/30 08:30:06;;;;;;;0.30;0.30;;;;;;;10.32;78.88;100122.41;5071728;28;20170;-72
2022/05/30 08:32:37;;;;;;;0.10;0.10;;;;;;;10.26;79.19;100132.66;5071754;28;20167;-75
2022/05/30 08:35:05;;;;;;;0.37;0.37;;;;;;;10.21;79.26;100131.97;5071541;28;20682;-72
2022/05/30 08:37:32;;;;;;;1.80;0.30;;;;;;;10.16;78.14;100129.41;5071305;28;20209;-72
2022/05/30 08:42:47;;;;;;;1.03;1.03;;;;;;;10.11;78.16;100133.84;5071949;28;20169;-73
2022/05/30 08:45:17;;;;;;;0.07;0.07;;;;;;;10.16;79.82;100132.13;5071612;28;20182;-73
2022/05/30 08:47:52;;;;;;;0.00;0.00;;;;;;;10.18;79.35;100132.63;5071413;28;20601;-72
2022/05/30 08:50:46;;;;;;;0.10;0.10;;;;;;;10.19;79.55;100139.69;5071503;28;20167;-74
2022/05/30 08:53:47;;;;;;;0.00;0.00;;;;;;;10.21;80.28;100129.25;5071142;28;20177;-74
2022/05/30 08:56:29;;;;;;;0.23;0.23;;;;;;;10.23;80.43;100140.69;5071504;28;20162;-73
2022/05/30 08:59:30;;;;;;;0.00;0.00;;;;;;;10.29;80.96;100147.63;5071021;28;20534;-73
2022/05/30 09:02:05;;;;;;;0.00;0.00;;;;;;;10.30;79.44;100143.78;5071354;28;20174;-74
2022/05/30 09:04:47;;;;;;;0.00;0.00;;;;;;;10.29;78.14;100142.97;5071332;28;20182;-73
2022/05/30 09:07:21;;;;;;;0.00;0.00;;;;;;;10.34;77.46;100145.53;5071260;28;20519;-74
2022/05/30 09:09:55;;;;;;;0.10;0.10;;;;;;;10.48;77.96;100152.81;5068895;28;20177;-71
2022/05/30 09:12:45;;;;;;;0.00;0.00;;;;;;;10.52;76.75;100142.84;5062085;28;20741;-73
2022/05/30 09:15:42;;;;;;;0.20;0.20;;;;;;;10.61;76.56;100149.16;5071218;28;20247;-74
2022/05/30 09:18:20;;;;;;;0.13;0.13;;;;;;;10.83;77.99;100153.66;5071070;28;20210;-74
2022/05/30 09:20:46;;;;;;;0.00;0.00;;;;;;;10.89;74.97;100147.72;5071390;28;20158;-73
2022/05/30 09:23:13;;;;;;;0.43;0.40;;;;;;;11.11;74.12;100145.94;5071071;28;20622;-73
2022/05/30 09:25:56;;;;;;;11.23;0.83;;;;;;;11.04;70.93;100154.66;5070988;28;20231;-73
2022/05/30 09:28:26;;;;;;;0.00;0.00;;;;;;;11.07;70.64;100150.47;5071019;28;20246;-73
2022/05/30 09:31:20;;;;;;;0.00;0.00;;;;;;;11.16;71.84;100152.09;5071077;28;20170;-73
2022/05/30 09:33:58;;;;;;;0.20;0.20;;;;;;;11.31;71.71;100154.31;5071227;28;20195;-72
2022/05/30 09:36:24;;;;;;;0.00;0.00;;;;;;;11.35;68.27;100156.41;5071050;28;20174;-72
2022/05/30 09:39:15;;;;;;;0.00;0.00;;;;;;;11.48;67.92;100155.44;5074428;28;20182;-73
2022/05/30 09:41:40;;;;;;;0.00;0.00;;;;;;;11.56;68.47;100144.44;5074866;28;20240;-73
2022/05/30 09:44:38;;;;;;;0.00;0.00;;;;;;;11.61;68.17;100147.03;5074714;28;20224;-72
2022/05/30 09:47:14;;;;;;;0.00;0.00;;;;;;;11.56;67.72;100149.13;5068948;28;20668;-73
2022/05/30 09:49:44;;;;;;;0.20;0.20;;;;;;;11.47;67.29;100153.81;5067274;28;20641;-74
2022/05/30 09:52:28;;;;;;;0.00;0.00;;;;;;;11.47;68.52;100145.63;5072764;28;20543;-72
2022/05/30 09:54:54;;;;;;;0.30;0.30;;;;;;;11.35;69.18;100149.00;5074554;28;20202;-72
2022/05/30 09:57:25;;;;;;;0.40;0.30;;;;;;;11.43;69.92;100148.19;5073952;28;20699;-73
2022/05/30 09:59:54;;;;;;;0.20;0.20;;;;;;;11.51;71.58;100152.03;5074594;28;20638;-72
2022/05/30 10:02:33;;;;;;;0.50;0.10;;;;;;;11.41;70.14;100147.69;5074422;28;20257;-74
2022/05/30 10:05:26;;;;;;;1.70;0.63;;;;;;;11.37;70.46;100151.41;5074366;28;20669;-73
2022/05/30 10:07:52;;;;;;;0.17;0.17;;;;;;;11.25;71.21;100160.25;5074105;28;20166;-74
2022/05/30 10:10:20;;;;;;;0.00;0.00;;;;;;;11.24;72.35;100159.47;5073912;28;20189;-73
2022/05/30 10:13:04;;;;;;;0.00;0.00;;;;;;;11.39;73.55;100160.91;5073783;28;20177;-72
2022/05/30 10:15:36;;;;;;;0.00;0.00;;;;;;;11.40;73.00;100167.16;5073837;28;20708;-74
2022/05/30 10:18:10;;;;;;;0.20;0.10;;;;;;;11.30;71.26;100162.84;5074027;28;20181;-74
2022/05/30 10:20:45;;;;;;;0.00;0.00;;;;;;;11.48;71.60;100169.09;5074693;28;20372;-72
2022/05/30 10:29:50;;;;;;;6.07;1.50;;;;;;;11.54;72.19;100171.34;5070362;28;20251;-72
2022/05/30 10:32:24;;;;;;;1.43;0.53;;;;;;;11.56;71.74;100165.53;5072945;28;20178;-72
2022/05/30 10:35:05;;;;;;;0.00;0.00;;;;;;;11.59;72.13;100182.13;5073254;28;20259;-73
2022/05/30 10:38:04;;;;;;;0.00;0.00;;;;;;;11.50;71.45;100177.78;5072921;28;20178;-72
2022/05/30 10:40:41;;;;;;;0.00;0.00;;;;;;;11.53;71.76;100182.59;5073123;28;20187;-72
2022/05/30 10:43:39;;;;;;;0.00;0.00;;;;;;;11.60;71.90;100185.66;5073405;28;20186;-72
2022/05/30 10:46:10;;;;;;;0.00;0.00;;;;;;;11.54;72.19;100190.47;5073013;28;20232;-73
2022/05/30 10:48:41;;;;;;;0.00;0.00;;;;;;;11.58;72.82;100185.19;5072473;28;20270;-72
2022/05/30 10:51:12;;;;;;;0.00;0.00;;;;;;;11.41;73.04;100186.00;5072905;28;20179;-73
2022/05/30 10:53:50;;;;;;;0.93;0.37;;;;;;;11.30;72.78;100187.47;5072719;28;20205;-73
2022/05/30 10:56:25;;;;;;;0.00;0.00;;;;;;;11.22;73.66;100188.25;5072806;28;20266;-72
2022/05/30 10:59:03;;;;;;;0.10;0.10;;;;;;;11.21;73.91;100197.59;5072515;28;20173;-72
2022/05/30 11:01:40;;;;;;;0.00;0.00;;;;;;;11.17;73.22;100200.19;5073250;28;20182;-72
2022/05/30 11:04:30;;;;;;;0.00;0.00;;;;;;;11.17;72.61;100191.16;5072719;28;20182;-73
2022/05/30 11:07:06;;;;;;;0.00;0.00;;;;;;;11.14;72.28;100202.72;5072690;28;20253;-73
2022/05/30 11:09:45;;;;;;;0.00;0.00;;;;;;;11.30;73.21;100196.47;5072510;28;20701;-72
2022/05/30 11:12:39;;;;;;;0.00;0.00;;;;;;;11.42;73.00;100197.72;5072572;28;20439;-72
2022/05/30 11:15:36;;;;;;;0.00;0.00;;;;;;;11.42;73.06;100195.00;5064240;28;20682;-72
2022/05/30 11:18:14;;;;;;;7.40;0.27;;;;;;;11.39;71.93;100203.84;5071578;28;20194;-72
2022/05/30 11:20:46;;;;;;;0.40;0.40;;;;;;;11.46;73.34;100194.06;5072563;28;20212;-72
2022/05/30 11:23:12;;;;;;;0.00;0.00;;;;;;;11.49;72.64;100187.13;5072382;28;20174;-72
2022/05/30 11:26:03;;;;;;;0.00;0.00;;;;;;;11.54;72.72;100190.47;5071875;28;20566;-72
2022/05/30 11:28:51;;;;;;;0.00;0.00;;;;;;;11.45;71.58;100192.44;5071960;28;20185;-73
2022/05/30 11:31:26;;;;;;;0.00;0.00;;;;;;;11.66;71.44;100192.56;5072162;28;20254;-73
2022/05/30 11:34:05;;;;;;;0.00;0.00;;;;;;;11.57;70.07;100203.53;5072147;28;20255;-73
2022/05/30 11:37:04;;;;;;;0.00;0.00;;;;;;;11.47;70.25;100203.06;5072006;28;20189;-72
2022/05/30 11:39:44;;;;;;;0.00;0.00;;;;;;;11.40;71.39;100200.78;5072088;28;20178;-72
2022/05/30 11:42:43;;;;;;;0.00;0.00;;;;;;;11.32;70.50;100205.16;5072079;28;20579;-73
2022/05/30 11:45:29;;;;;;;0.10;0.10;;;;;;;11.34;70.32;100199.38;5071662;28;20308;-73
2022/05/30 11:48:19;;;;;;;0.27;0.27;;;;;;;11.28;71.53;100198.72;5071538;28;20218;-72
2022/05/30 11:50:59;;;;;;;0.60;0.60;;;;;;;11.05;71.77;100197.25;5071866;28;20178;-72
2022/05/30 11:53:42;;;;;;;1.13;0.87;;;;;;;10.89;72.75;100204.31;5071646;28;20240;-72
2022/05/30 11:56:22;;;;;;;0.50;0.40;;;;;;;10.89;73.52;100196.13;5071907;28;20278;-73
2022/05/30 11:59:31;;;;;;;1.43;1.03;;;;;;;10.93;74.16;100195.16;5071519;28;20673;-72
2022/05/30 12:02:00;;;;;;;2.23;0.03;;;;;;;11.00;74.38;100200.16;5070202;28;20243;-72